sensor_id;sensor_type;location;lat;lon;timestamp;P1;durP1;ratioP1;P2;durP2;ratioP2
9716;SDS011;4897;43.570;27.832;2022-12-11T00:01:55;17.60;;;4.55;;
9716;SDS011;4897;43.570;27.832;2022-12-11T00:04:22;14.88;;;4.88;;
9716;SDS011;4897;43.570;27.832;2022-12-11T00:06:49;16.67;;;4.82;;
9716;SDS011;4897;43.570;27.832;2022-12-11T00:09:16;13.43;;;4.38;;
9716;SDS011;4897;43.570;27.832;2022-12-11T00:11:44;13.65;;;3.90;;
9716;SDS011;4897;43.570;27.832;2022-12-11T00:14:12;15.40;;;4.40;;
9716;SDS011;4897;43.570;27.832;2022-12-11T00:16:40;15.00;;;4.40;;
9716;SDS011;4897;43.570;27.832;2022-12-11T00:19:07;18.38;;;4.45;;
9716;SDS011;4897;43.570;27.832;2022-12-11T00:21:34;19.08;;;4.50;;
9716;SDS011;4897;43.570;27.832;2022-12-11T00:24:01;15.95;;;4.78;;
9716;SDS011;4897;43.570;27.832;2022-12-11T00:26:28;22.77;;;5.15;;
9716;SDS011;4897;43.570;27.832;2022-12-11T00:28:57;11.15;;;4.22;;
9716;SDS011;4897;43.570;27.832;2022-12-11T00:31:24;15.73;;;4.95;;
9716;SDS011;4897;43.570;27.832;2022-12-11T00:33:50;13.52;;;4.93;;
9716;SDS011;4897;43.570;27.832;2022-12-11T00:36:18;15.90;;;5.35;;
9716;SDS011;4897;43.570;27.832;2022-12-11T00:38:46;22.23;;;5.15;;
9716;SDS011;4897;43.570;27.832;2022-12-11T00:41:13;18.15;;;5.00;;
9716;SDS011;4897;43.570;27.832;2022-12-11T00:43:40;18.50;;;5.10;;
9716;SDS011;4897;43.570;27.832;2022-12-11T00:46:08;21.33;;;5.18;;
9716;SDS011;4897;43.570;27.832;2022-12-11T00:48:36;18.77;;;5.40;;
9716;SDS011;4897;43.570;27.832;2022-12-11T00:51:03;12.95;;;4.78;;
9716;SDS011;4897;43.570;27.832;2022-12-11T00:53:30;16.05;;;5.07;;
9716;SDS011;4897;43.570;27.832;2022-12-11T00:55:57;15.20;;;4.63;;
9716;SDS011;4897;43.570;27.832;2022-12-11T00:58:24;15.63;;;4.50;;
9716;SDS011;4897;43.570;27.832;2022-12-11T01:00:51;12.45;;;4.45;;
9716;SDS011;4897;43.570;27.832;2022-12-11T01:03:19;20.23;;;5.07;;
9716;SDS011;4897;43.570;27.832;2022-12-11T01:05:50;19.05;;;5.00;;
9716;SDS011;4897;43.570;27.832;2022-12-11T01:08:18;23.52;;;5.80;;
9716;SDS011;4897;43.570;27.832;2022-12-11T01:10:45;18.17;;;5.07;;
9716;SDS011;4897;43.570;27.832;2022-12-11T01:13:10;15.48;;;4.30;;
9716;SDS011;4897;43.570;27.832;2022-12-11T01:15:38;20.13;;;5.80;;
9716;SDS011;4897;43.570;27.832;2022-12-11T01:18:07;19.80;;;5.50;;
9716;SDS011;4897;43.570;27.832;2022-12-11T01:20:36;17.45;;;4.90;;
9716;SDS011;4897;43.570;27.832;2022-12-11T01:23:05;20.23;;;5.50;;
9716;SDS011;4897;43.570;27.832;2022-12-11T01:25:34;16.70;;;5.30;;
9716;SDS011;4897;43.570;27.832;2022-12-11T01:28:03;12.45;;;4.20;;
9716;SDS011;4897;43.570;27.832;2022-12-11T01:30:30;20.92;;;5.15;;
9716;SDS011;4897;43.570;27.832;2022-12-11T01:32:57;16.45;;;4.72;;
9716;SDS011;4897;43.570;27.832;2022-12-11T01:35:24;19.85;;;5.53;;
9716;SDS011;4897;43.570;27.832;2022-12-11T01:37:53;14.93;;;5.07;;
9716;SDS011;4897;43.570;27.832;2022-12-11T01:40:20;18.40;;;5.40;;
9716;SDS011;4897;43.570;27.832;2022-12-11T01:42:47;17.60;;;5.40;;
9716;SDS011;4897;43.570;27.832;2022-12-11T01:45:22;12.13;;;4.63;;
9716;SDS011;4897;43.570;27.832;2022-12-11T01:47:54;21.35;;;5.38;;
9716;SDS011;4897;43.570;27.832;2022-12-11T01:50:25;29.08;;;5.22;;
9716;SDS011;4897;43.570;27.832;2022-12-11T01:52:54;19.63;;;5.88;;
9716;SDS011;4897;43.570;27.832;2022-12-11T01:55:21;13.20;;;4.82;;
9716;SDS011;4897;43.570;27.832;2022-12-11T01:57:49;20.10;;;5.30;;
9716;SDS011;4897;43.570;27.832;2022-12-11T02:00:18;16.70;;;4.55;;
9716;SDS011;4897;43.570;27.832;2022-12-11T02:02:45;12.32;;;4.88;;
9716;SDS011;4897;43.570;27.832;2022-12-11T02:05:12;20.25;;;5.13;;
9716;SDS011;4897;43.570;27.832;2022-12-11T02:07:40;13.82;;;5.07;;
9716;SDS011;4897;43.570;27.832;2022-12-11T02:10:11;16.75;;;5.43;;
9716;SDS011;4897;43.570;27.832;2022-12-11T02:12:40;18.25;;;5.13;;
9716;SDS011;4897;43.570;27.832;2022-12-11T02:15:17;22.27;;;5.68;;
9716;SDS011;4897;43.570;27.832;2022-12-11T02:17:52;23.65;;;5.85;;
9716;SDS011;4897;43.570;27.832;2022-12-11T02:20:26;16.65;;;4.95;;
9716;SDS011;4897;43.570;27.832;2022-12-11T02:26:04;15.48;;;5.38;;
9716;SDS011;4897;43.570;27.832;2022-12-11T02:28:39;20.92;;;5.50;;
9716;SDS011;4897;43.570;27.832;2022-12-11T02:31:12;17.20;;;4.90;;
9716;SDS011;4897;43.570;27.832;2022-12-11T02:33:46;24.80;;;5.32;;
9716;SDS011;4897;43.570;27.832;2022-12-11T02:36:24;24.10;;;5.55;;
9716;SDS011;4897;43.570;27.832;2022-12-11T02:38:53;15.50;;;4.93;;
9716;SDS011;4897;43.570;27.832;2022-12-11T02:41:24;15.32;;;5.30;;
9716;SDS011;4897;43.570;27.832;2022-12-11T02:43:55;21.48;;;5.90;;
9716;SDS011;4897;43.570;27.832;2022-12-11T02:46:23;21.02;;;5.40;;
9716;SDS011;4897;43.570;27.832;2022-12-11T02:48:52;18.00;;;5.63;;
9716;SDS011;4897;43.570;27.832;2022-12-11T02:51:23;13.35;;;5.88;;
9716;SDS011;4897;43.570;27.832;2022-12-11T02:53:52;15.70;;;5.65;;
9716;SDS011;4897;43.570;27.832;2022-12-11T02:56:23;18.98;;;5.78;;
9716;SDS011;4897;43.570;27.832;2022-12-11T02:59:02;20.05;;;6.03;;
9716;SDS011;4897;43.570;27.832;2022-12-11T03:01:34;22.25;;;5.55;;
9716;SDS011;4897;43.570;27.832;2022-12-11T03:04:01;19.98;;;6.22;;
9716;SDS011;4897;43.570;27.832;2022-12-11T03:06:30;24.80;;;5.80;;
9716;SDS011;4897;43.570;27.832;2022-12-11T03:09:02;21.17;;;6.30;;
9716;SDS011;4897;43.570;27.832;2022-12-11T03:11:29;17.95;;;5.70;;
9716;SDS011;4897;43.570;27.832;2022-12-11T03:13:56;22.70;;;6.40;;
9716;SDS011;4897;43.570;27.832;2022-12-11T03:16:27;15.60;;;5.18;;
9716;SDS011;4897;43.570;27.832;2022-12-11T03:19:01;20.35;;;6.18;;
9716;SDS011;4897;43.570;27.832;2022-12-11T03:21:38;18.58;;;6.22;;
9716;SDS011;4897;43.570;27.832;2022-12-11T03:24:10;31.65;;;6.90;;
9716;SDS011;4897;43.570;27.832;2022-12-11T03:26:44;19.58;;;6.00;;
9716;SDS011;4897;43.570;27.832;2022-12-11T03:29:16;20.08;;;5.60;;
9716;SDS011;4897;43.570;27.832;2022-12-11T03:31:49;25.02;;;5.97;;
9716;SDS011;4897;43.570;27.832;2022-12-11T03:34:22;16.08;;;5.78;;
9716;SDS011;4897;43.570;27.832;2022-12-11T03:36:52;15.15;;;5.70;;
9716;SDS011;4897;43.570;27.832;2022-12-11T03:39:24;14.98;;;6.25;;
9716;SDS011;4897;43.570;27.832;2022-12-11T03:41:54;30.67;;;6.43;;
9716;SDS011;4897;43.570;27.832;2022-12-11T03:44:22;12.45;;;5.47;;
9716;SDS011;4897;43.570;27.832;2022-12-11T03:46:53;28.20;;;7.00;;
9716;SDS011;4897;43.570;27.832;2022-12-11T03:49:23;24.10;;;6.72;;
9716;SDS011;4897;43.570;27.832;2022-12-11T03:51:54;15.95;;;5.30;;
9716;SDS011;4897;43.570;27.832;2022-12-11T03:54:23;16.92;;;6.15;;
9716;SDS011;4897;43.570;27.832;2022-12-11T03:56:52;16.35;;;7.03;;
9716;SDS011;4897;43.570;27.832;2022-12-11T03:59:22;19.10;;;6.80;;
9716;SDS011;4897;43.570;27.832;2022-12-11T04:01:49;17.73;;;6.28;;
9716;SDS011;4897;43.570;27.832;2022-12-11T04:04:17;22.38;;;6.70;;
9716;SDS011;4897;43.570;27.832;2022-12-11T04:06:45;18.38;;;7.15;;
9716;SDS011;4897;43.570;27.832;2022-12-11T04:09:11;17.83;;;6.63;;
9716;SDS011;4897;43.570;27.832;2022-12-11T04:11:38;18.17;;;6.65;;
9716;SDS011;4897;43.570;27.832;2022-12-11T04:14:07;18.48;;;6.95;;
9716;SDS011;4897;43.570;27.832;2022-12-11T04:16:53;18.23;;;6.95;;
9716;SDS011;4897;43.570;27.832;2022-12-11T04:19:22;19.35;;;7.03;;
9716;SDS011;4897;43.570;27.832;2022-12-11T04:22:07;17.90;;;6.80;;
9716;SDS011;4897;43.570;27.832;2022-12-11T04:24:52;25.67;;;8.32;;
9716;SDS011;4897;43.570;27.832;2022-12-11T04:27:19;16.60;;;7.15;;
9716;SDS011;4897;43.570;27.832;2022-12-11T04:30:00;23.77;;;6.63;;
9716;SDS011;4897;43.570;27.832;2022-12-11T04:32:27;21.08;;;7.45;;
9716;SDS011;4897;43.570;27.832;2022-12-11T04:34:55;17.50;;;7.32;;
9716;SDS011;4897;43.570;27.832;2022-12-11T04:37:22;21.90;;;6.85;;
9716;SDS011;4897;43.570;27.832;2022-12-11T04:39:49;16.80;;;6.90;;
9716;SDS011;4897;43.570;27.832;2022-12-11T04:42:16;16.73;;;6.95;;
9716;SDS011;4897;43.570;27.832;2022-12-11T04:44:43;16.23;;;7.55;;
9716;SDS011;4897;43.570;27.832;2022-12-11T04:47:11;18.20;;;7.97;;
9716;SDS011;4897;43.570;27.832;2022-12-11T04:49:37;20.02;;;8.05;;
9716;SDS011;4897;43.570;27.832;2022-12-11T04:52:06;22.20;;;7.45;;
9716;SDS011;4897;43.570;27.832;2022-12-11T04:54:33;22.15;;;7.32;;
9716;SDS011;4897;43.570;27.832;2022-12-11T04:56:59;20.55;;;7.97;;
9716;SDS011;4897;43.570;27.832;2022-12-11T04:59:26;24.98;;;8.43;;
9716;SDS011;4897;43.570;27.832;2022-12-11T05:01:54;19.30;;;8.25;;
9716;SDS011;4897;43.570;27.832;2022-12-11T05:04:21;26.15;;;7.53;;
9716;SDS011;4897;43.570;27.832;2022-12-11T05:06:48;21.92;;;8.65;;
9716;SDS011;4897;43.570;27.832;2022-12-11T05:09:17;18.10;;;8.40;;
9716;SDS011;4897;43.570;27.832;2022-12-11T05:11:44;24.05;;;8.60;;
9716;SDS011;4897;43.570;27.832;2022-12-11T05:14:11;21.58;;;7.53;;
9716;SDS011;4897;43.570;27.832;2022-12-11T05:16:38;19.38;;;8.43;;
9716;SDS011;4897;43.570;27.832;2022-12-11T05:19:05;25.98;;;8.27;;
9716;SDS011;4897;43.570;27.832;2022-12-11T05:21:32;20.52;;;7.85;;
9716;SDS011;4897;43.570;27.832;2022-12-11T05:23:59;17.42;;;9.15;;
9716;SDS011;4897;43.570;27.832;2022-12-11T05:26:27;21.83;;;8.15;;
9716;SDS011;4897;43.570;27.832;2022-12-11T05:28:54;17.50;;;8.25;;
9716;SDS011;4897;43.570;27.832;2022-12-11T05:31:22;25.52;;;8.93;;
9716;SDS011;4897;43.570;27.832;2022-12-11T05:33:51;22.08;;;9.70;;
9716;SDS011;4897;43.570;27.832;2022-12-11T05:36:19;26.27;;;8.68;;
9716;SDS011;4897;43.570;27.832;2022-12-11T05:38:47;22.13;;;8.68;;
9716;SDS011;4897;43.570;27.832;2022-12-11T05:41:15;26.00;;;8.55;;
9716;SDS011;4897;43.570;27.832;2022-12-11T05:43:45;17.05;;;8.02;;
9716;SDS011;4897;43.570;27.832;2022-12-11T05:46:13;18.98;;;8.50;;
9716;SDS011;4897;43.570;27.832;2022-12-11T05:48:42;33.63;;;8.15;;
9716;SDS011;4897;43.570;27.832;2022-12-11T05:51:10;25.30;;;9.38;;
9716;SDS011;4897;43.570;27.832;2022-12-11T05:53:38;17.23;;;7.68;;
9716;SDS011;4897;43.570;27.832;2022-12-11T05:56:07;18.10;;;8.10;;
9716;SDS011;4897;43.570;27.832;2022-12-11T05:58:37;18.63;;;7.65;;
9716;SDS011;4897;43.570;27.832;2022-12-11T06:01:07;19.08;;;6.72;;
9716;SDS011;4897;43.570;27.832;2022-12-11T06:03:36;21.77;;;7.82;;
9716;SDS011;4897;43.570;27.832;2022-12-11T06:06:03;15.68;;;6.60;;
9716;SDS011;4897;43.570;27.832;2022-12-11T06:08:31;17.70;;;6.53;;
9716;SDS011;4897;43.570;27.832;2022-12-11T06:10:59;15.85;;;6.82;;
9716;SDS011;4897;43.570;27.832;2022-12-11T06:13:26;23.95;;;8.07;;
9716;SDS011;4897;43.570;27.832;2022-12-11T06:15:53;13.82;;;5.63;;
9716;SDS011;4897;43.570;27.832;2022-12-11T06:18:21;12.88;;;5.65;;
9716;SDS011;4897;43.570;27.832;2022-12-11T06:20:48;14.70;;;5.93;;
9716;SDS011;4897;43.570;27.832;2022-12-11T06:23:15;13.30;;;6.60;;
9716;SDS011;4897;43.570;27.832;2022-12-11T06:25:42;15.13;;;5.07;;
9716;SDS011;4897;43.570;27.832;2022-12-11T06:28:09;15.70;;;5.47;;
9716;SDS011;4897;43.570;27.832;2022-12-11T06:30:36;14.95;;;6.70;;
9716;SDS011;4897;43.570;27.832;2022-12-11T06:33:02;17.90;;;6.65;;
9716;SDS011;4897;43.570;27.832;2022-12-11T06:35:31;22.92;;;6.35;;
9716;SDS011;4897;43.570;27.832;2022-12-11T06:37:58;23.27;;;6.72;;
9716;SDS011;4897;43.570;27.832;2022-12-11T06:40:25;16.90;;;5.78;;
9716;SDS011;4897;43.570;27.832;2022-12-11T06:42:52;19.85;;;6.70;;
9716;SDS011;4897;43.570;27.832;2022-12-11T06:45:19;20.73;;;6.60;;
9716;SDS011;4897;43.570;27.832;2022-12-11T06:47:46;20.05;;;6.53;;
9716;SDS011;4897;43.570;27.832;2022-12-11T06:50:13;24.20;;;6.38;;
9716;SDS011;4897;43.570;27.832;2022-12-11T06:52:41;16.10;;;5.60;;
9716;SDS011;4897;43.570;27.832;2022-12-11T06:55:08;17.90;;;6.47;;
9716;SDS011;4897;43.570;27.832;2022-12-11T06:57:35;14.73;;;6.30;;
9716;SDS011;4897;43.570;27.832;2022-12-11T07:00:02;14.38;;;6.13;;
9716;SDS011;4897;43.570;27.832;2022-12-11T07:02:30;16.17;;;5.75;;
9716;SDS011;4897;43.570;27.832;2022-12-11T07:04:57;22.00;;;5.70;;
9716;SDS011;4897;43.570;27.832;2022-12-11T07:07:23;23.70;;;6.18;;
9716;SDS011;4897;43.570;27.832;2022-12-11T07:09:52;22.13;;;6.05;;
9716;SDS011;4897;43.570;27.832;2022-12-11T07:12:18;13.55;;;6.22;;
9716;SDS011;4897;43.570;27.832;2022-12-11T07:14:45;11.23;;;5.18;;
9716;SDS011;4897;43.570;27.832;2022-12-11T07:17:12;22.52;;;5.88;;
9716;SDS011;4897;43.570;27.832;2022-12-11T07:19:39;17.67;;;6.00;;
9716;SDS011;4897;43.570;27.832;2022-12-11T07:22:06;19.80;;;5.85;;
9716;SDS011;4897;43.570;27.832;2022-12-11T07:24:33;10.32;;;4.50;;
9716;SDS011;4897;43.570;27.832;2022-12-11T07:27:01;16.73;;;6.07;;
9716;SDS011;4897;43.570;27.832;2022-12-11T07:29:32;20.35;;;5.68;;
9716;SDS011;4897;43.570;27.832;2022-12-11T07:31:58;19.20;;;5.32;;
9716;SDS011;4897;43.570;27.832;2022-12-11T07:34:25;20.75;;;5.38;;
9716;SDS011;4897;43.570;27.832;2022-12-11T07:36:52;21.52;;;5.43;;
9716;SDS011;4897;43.570;27.832;2022-12-11T07:39:19;16.75;;;5.18;;
9716;SDS011;4897;43.570;27.832;2022-12-11T07:41:46;17.00;;;4.95;;
9716;SDS011;4897;43.570;27.832;2022-12-11T07:44:14;15.77;;;4.72;;
9716;SDS011;4897;43.570;27.832;2022-12-11T07:46:41;13.68;;;5.15;;
9716;SDS011;4897;43.570;27.832;2022-12-11T07:49:08;21.83;;;5.55;;
9716;SDS011;4897;43.570;27.832;2022-12-11T07:51:35;16.67;;;4.70;;
9716;SDS011;4897;43.570;27.832;2022-12-11T07:54:03;15.80;;;5.32;;
9716;SDS011;4897;43.570;27.832;2022-12-11T07:56:32;17.30;;;5.10;;
9716;SDS011;4897;43.570;27.832;2022-12-11T07:59:00;17.80;;;5.25;;
9716;SDS011;4897;43.570;27.832;2022-12-11T08:01:31;22.40;;;5.55;;
9716;SDS011;4897;43.570;27.832;2022-12-11T08:04:00;11.23;;;4.32;;
9716;SDS011;4897;43.570;27.832;2022-12-11T08:06:28;12.70;;;4.30;;
9716;SDS011;4897;43.570;27.832;2022-12-11T08:08:57;14.75;;;4.75;;
9716;SDS011;4897;43.570;27.832;2022-12-11T08:11:26;13.93;;;4.47;;
9716;SDS011;4897;43.570;27.832;2022-12-11T08:13:53;18.35;;;4.70;;
9716;SDS011;4897;43.570;27.832;2022-12-11T08:16:20;21.08;;;5.20;;
9716;SDS011;4897;43.570;27.832;2022-12-11T08:18:49;17.27;;;4.63;;
9716;SDS011;4897;43.570;27.832;2022-12-11T08:21:18;14.55;;;5.25;;
9716;SDS011;4897;43.570;27.832;2022-12-11T08:23:46;12.57;;;4.90;;
9716;SDS011;4897;43.570;27.832;2022-12-11T08:26:14;18.48;;;4.75;;
9716;SDS011;4897;43.570;27.832;2022-12-11T08:28:42;16.55;;;4.55;;
9716;SDS011;4897;43.570;27.832;2022-12-11T08:31:10;17.23;;;5.03;;
9716;SDS011;4897;43.570;27.832;2022-12-11T08:33:39;14.77;;;4.20;;
9716;SDS011;4897;43.570;27.832;2022-12-11T08:36:09;12.30;;;4.22;;
9716;SDS011;4897;43.570;27.832;2022-12-11T08:38:37;16.30;;;4.50;;
9716;SDS011;4897;43.570;27.832;2022-12-11T08:41:08;12.77;;;4.40;;
9716;SDS011;4897;43.570;27.832;2022-12-11T08:43:36;17.15;;;4.90;;
9716;SDS011;4897;43.570;27.832;2022-12-11T08:46:03;14.70;;;3.90;;
9716;SDS011;4897;43.570;27.832;2022-12-11T08:48:31;13.05;;;4.25;;
9716;SDS011;4897;43.570;27.832;2022-12-11T08:50:58;17.23;;;4.28;;
9716;SDS011;4897;43.570;27.832;2022-12-11T08:53:28;16.20;;;4.40;;
9716;SDS011;4897;43.570;27.832;2022-12-11T08:55:59;16.70;;;4.40;;
9716;SDS011;4897;43.570;27.832;2022-12-11T08:58:26;17.85;;;4.63;;
9716;SDS011;4897;43.570;27.832;2022-12-11T09:00:54;14.65;;;4.28;;
9716;SDS011;4897;43.570;27.832;2022-12-11T09:03:21;11.32;;;3.88;;
9716;SDS011;4897;43.570;27.832;2022-12-11T09:05:48;11.52;;;3.88;;
9716;SDS011;4897;43.570;27.832;2022-12-11T09:08:15;16.75;;;4.20;;
9716;SDS011;4897;43.570;27.832;2022-12-11T09:10:43;12.80;;;3.35;;
9716;SDS011;4897;43.570;27.832;2022-12-11T09:13:10;10.90;;;3.28;;
9716;SDS011;4897;43.570;27.832;2022-12-11T09:15:38;17.92;;;4.03;;
9716;SDS011;4897;43.570;27.832;2022-12-11T09:18:06;22.30;;;3.85;;
9716;SDS011;4897;43.570;27.832;2022-12-11T09:20:42;12.23;;;3.53;;
9716;SDS011;4897;43.570;27.832;2022-12-11T09:23:09;13.65;;;3.92;;
9716;SDS011;4897;43.570;27.832;2022-12-11T09:25:38;11.63;;;3.63;;
9716;SDS011;4897;43.570;27.832;2022-12-11T09:28:06;11.32;;;3.80;;
9716;SDS011;4897;43.570;27.832;2022-12-11T09:30:33;14.55;;;3.80;;
9716;SDS011;4897;43.570;27.832;2022-12-11T09:33:00;10.80;;;3.42;;
9716;SDS011;4897;43.570;27.832;2022-12-11T09:35:29;13.82;;;3.53;;
9716;SDS011;4897;43.570;27.832;2022-12-11T09:37:56;15.32;;;3.80;;
9716;SDS011;4897;43.570;27.832;2022-12-11T09:40:23;13.70;;;3.35;;
9716;SDS011;4897;43.570;27.832;2022-12-11T09:42:52;12.60;;;3.45;;
9716;SDS011;4897;43.570;27.832;2022-12-11T09:45:25;15.88;;;3.35;;
9716;SDS011;4897;43.570;27.832;2022-12-11T09:47:52;16.58;;;4.15;;
9716;SDS011;4897;43.570;27.832;2022-12-11T09:50:22;15.98;;;3.75;;
9716;SDS011;4897;43.570;27.832;2022-12-11T09:53:02;15.10;;;3.67;;
9716;SDS011;4897;43.570;27.832;2022-12-11T09:55:35;11.80;;;3.33;;
9716;SDS011;4897;43.570;27.832;2022-12-11T09:58:10;10.25;;;2.80;;
9716;SDS011;4897;43.570;27.832;2022-12-11T10:00:47;11.35;;;2.90;;
9716;SDS011;4897;43.570;27.832;2022-12-11T10:03:29;14.10;;;3.00;;
9716;SDS011;4897;43.570;27.832;2022-12-11T10:06:11;12.73;;;3.08;;
9716;SDS011;4897;43.570;27.832;2022-12-11T10:08:46;11.68;;;3.38;;
9716;SDS011;4897;43.570;27.832;2022-12-11T10:14:25;12.45;;;2.95;;
9716;SDS011;4897;43.570;27.832;2022-12-11T10:17:06;11.32;;;3.45;;
9716;SDS011;4897;43.570;27.832;2022-12-11T10:19:38;15.50;;;2.85;;
9716;SDS011;4897;43.570;27.832;2022-12-11T10:22:07;9.50;;;3.33;;
9716;SDS011;4897;43.570;27.832;2022-12-11T10:24:41;9.93;;;3.20;;
9716;SDS011;4897;43.570;27.832;2022-12-11T10:27:12;14.40;;;3.00;;
9716;SDS011;4897;43.570;27.832;2022-12-11T10:29:40;13.35;;;2.95;;
9716;SDS011;4897;43.570;27.832;2022-12-11T10:32:12;14.70;;;3.17;;
9716;SDS011;4897;43.570;27.832;2022-12-11T10:34:47;10.45;;;2.42;;
9716;SDS011;4897;43.570;27.832;2022-12-11T10:37:21;8.48;;;2.70;;
9716;SDS011;4897;43.570;27.832;2022-12-11T10:39:48;10.20;;;2.67;;
9716;SDS011;4897;43.570;27.832;2022-12-11T10:42:16;12.02;;;3.30;;
9716;SDS011;4897;43.570;27.832;2022-12-11T10:44:55;9.75;;;2.78;;
9716;SDS011;4897;43.570;27.832;2022-12-11T10:47:25;8.80;;;2.85;;
9716;SDS011;4897;43.570;27.832;2022-12-11T10:49:53;11.88;;;2.80;;
9716;SDS011;4897;43.570;27.832;2022-12-11T10:52:23;9.80;;;2.53;;
9716;SDS011;4897;43.570;27.832;2022-12-11T10:54:54;12.68;;;2.50;;
9716;SDS011;4897;43.570;27.832;2022-12-11T10:57:25;5.53;;;2.03;;
9716;SDS011;4897;43.570;27.832;2022-12-11T10:59:54;9.40;;;2.47;;
9716;SDS011;4897;43.570;27.832;2022-12-11T11:02:22;7.18;;;2.50;;
9716;SDS011;4897;43.570;27.832;2022-12-11T11:04:52;13.15;;;2.50;;
9716;SDS011;4897;43.570;27.832;2022-12-11T11:07:21;8.57;;;2.70;;
9716;SDS011;4897;43.570;27.832;2022-12-11T11:09:50;8.70;;;2.47;;
9716;SDS011;4897;43.570;27.832;2022-12-11T11:12:35;7.60;;;2.28;;
9716;SDS011;4897;43.570;27.832;2022-12-11T11:15:04;7.70;;;2.08;;
9716;SDS011;4897;43.570;27.832;2022-12-11T11:17:39;6.70;;;1.98;;
9716;SDS011;4897;43.570;27.832;2022-12-11T11:20:11;5.93;;;2.15;;
9716;SDS011;4897;43.570;27.832;2022-12-11T11:22:41;8.75;;;2.50;;
9716;SDS011;4897;43.570;27.832;2022-12-11T11:25:14;8.25;;;2.10;;
9716;SDS011;4897;43.570;27.832;2022-12-11T11:27:44;5.75;;;2.15;;
9716;SDS011;4897;43.570;27.832;2022-12-11T11:30:17;7.15;;;2.70;;
9716;SDS011;4897;43.570;27.832;2022-12-11T11:32:47;9.48;;;2.63;;
9716;SDS011;4897;43.570;27.832;2022-12-11T11:35:19;9.02;;;2.10;;
9716;SDS011;4897;43.570;27.832;2022-12-11T11:37:53;9.15;;;2.28;;
9716;SDS011;4897;43.570;27.832;2022-12-11T11:40:27;12.55;;;2.38;;
9716;SDS011;4897;43.570;27.832;2022-12-11T11:42:59;9.30;;;2.03;;
9716;SDS011;4897;43.570;27.832;2022-12-11T11:45:32;5.93;;;1.85;;
9716;SDS011;4897;43.570;27.832;2022-12-11T11:48:08;7.80;;;2.03;;
9716;SDS011;4897;43.570;27.832;2022-12-11T11:50:43;8.68;;;2.38;;
9716;SDS011;4897;43.570;27.832;2022-12-11T11:53:16;10.10;;;2.63;;
9716;SDS011;4897;43.570;27.832;2022-12-11T11:55:48;16.35;;;2.67;;
9716;SDS011;4897;43.570;27.832;2022-12-11T11:58:25;8.95;;;2.55;;
9716;SDS011;4897;43.570;27.832;2022-12-11T12:00:56;5.55;;;2.03;;
9716;SDS011;4897;43.570;27.832;2022-12-11T12:03:24;8.27;;;2.78;;
9716;SDS011;4897;43.570;27.832;2022-12-11T12:05:56;8.30;;;2.65;;
9716;SDS011;4897;43.570;27.832;2022-12-11T12:08:37;8.95;;;2.70;;
9716;SDS011;4897;43.570;27.832;2022-12-11T12:11:12;13.32;;;2.53;;
9716;SDS011;4897;43.570;27.832;2022-12-11T12:13:52;7.07;;;2.63;;
9716;SDS011;4897;43.570;27.832;2022-12-11T12:16:32;6.95;;;2.42;;
9716;SDS011;4897;43.570;27.832;2022-12-11T12:19:11;10.52;;;2.60;;
9716;SDS011;4897;43.570;27.832;2022-12-11T12:21:45;14.43;;;2.88;;
9716;SDS011;4897;43.570;27.832;2022-12-11T12:24:17;16.38;;;2.67;;
9716;SDS011;4897;43.570;27.832;2022-12-11T12:26:55;12.73;;;2.75;;
9716;SDS011;4897;43.570;27.832;2022-12-11T12:29:30;14.15;;;3.15;;
9716;SDS011;4897;43.570;27.832;2022-12-11T12:32:12;13.07;;;3.13;;
9716;SDS011;4897;43.570;27.832;2022-12-11T12:34:57;10.57;;;2.55;;
9716;SDS011;4897;43.570;27.832;2022-12-11T12:37:43;8.70;;;2.35;;
9716;SDS011;4897;43.570;27.832;2022-12-11T12:40:18;7.55;;;2.40;;
9716;SDS011;4897;43.570;27.832;2022-12-11T12:42:57;6.80;;;2.20;;
9716;SDS011;4897;43.570;27.832;2022-12-11T12:45:31;13.05;;;2.55;;
9716;SDS011;4897;43.570;27.832;2022-12-11T12:48:03;14.07;;;2.58;;
9716;SDS011;4897;43.570;27.832;2022-12-11T12:50:33;12.30;;;2.80;;
9716;SDS011;4897;43.570;27.832;2022-12-11T12:53:03;11.57;;;2.90;;
9716;SDS011;4897;43.570;27.832;2022-12-11T12:55:31;10.10;;;2.75;;
9716;SDS011;4897;43.570;27.832;2022-12-11T12:58:01;10.40;;;2.63;;
9716;SDS011;4897;43.570;27.832;2022-12-11T13:00:31;7.28;;;2.50;;
9716;SDS011;4897;43.570;27.832;2022-12-11T13:03:00;11.05;;;2.67;;
9716;SDS011;4897;43.570;27.832;2022-12-11T13:05:39;16.27;;;3.08;;
9716;SDS011;4897;43.570;27.832;2022-12-11T13:08:08;13.95;;;3.38;;
9716;SDS011;4897;43.570;27.832;2022-12-11T13:10:37;12.23;;;2.85;;
9716;SDS011;4897;43.570;27.832;2022-12-11T13:16:04;10.32;;;2.88;;
9716;SDS011;4897;43.570;27.832;2022-12-11T13:18:33;12.95;;;2.50;;
9716;SDS011;4897;43.570;27.832;2022-12-11T13:21:22;8.70;;;2.80;;
9716;SDS011;4897;43.570;27.832;2022-12-11T13:23:52;12.55;;;2.78;;
9716;SDS011;4897;43.570;27.832;2022-12-11T13:26:26;8.25;;;2.38;;
9716;SDS011;4897;43.570;27.832;2022-12-11T13:28:54;8.40;;;2.47;;
9716;SDS011;4897;43.570;27.832;2022-12-11T13:31:32;15.68;;;3.15;;
9716;SDS011;4897;43.570;27.832;2022-12-11T13:34:12;13.05;;;2.80;;
9716;SDS011;4897;43.570;27.832;2022-12-11T13:36:46;12.77;;;2.83;;
9716;SDS011;4897;43.570;27.832;2022-12-11T13:39:16;12.23;;;2.53;;
9716;SDS011;4897;43.570;27.832;2022-12-11T13:41:47;17.50;;;2.88;;
9716;SDS011;4897;43.570;27.832;2022-12-11T13:44:19;13.20;;;3.08;;
9716;SDS011;4897;43.570;27.832;2022-12-11T13:46:49;15.60;;;3.25;;
9716;SDS011;4897;43.570;27.832;2022-12-11T13:49:20;18.15;;;3.50;;
9716;SDS011;4897;43.570;27.832;2022-12-11T13:51:55;13.25;;;3.40;;
9716;SDS011;4897;43.570;27.832;2022-12-11T13:54:23;11.38;;;2.80;;
9716;SDS011;4897;43.570;27.832;2022-12-11T13:56:54;12.35;;;3.20;;
9716;SDS011;4897;43.570;27.832;2022-12-11T13:59:24;16.38;;;3.70;;
9716;SDS011;4897;43.570;27.832;2022-12-11T14:01:54;18.15;;;3.72;;
9716;SDS011;4897;43.570;27.832;2022-12-11T14:04:24;19.63;;;3.75;;
9716;SDS011;4897;43.570;27.832;2022-12-11T14:06:53;12.20;;;3.85;;
9716;SDS011;4897;43.570;27.832;2022-12-11T14:09:22;12.77;;;3.47;;
9716;SDS011;4897;43.570;27.832;2022-12-11T14:11:51;9.95;;;3.20;;
9716;SDS011;4897;43.570;27.832;2022-12-11T14:14:22;16.08;;;4.28;;
9716;SDS011;4897;43.570;27.832;2022-12-11T14:16:51;16.25;;;3.72;;
9716;SDS011;4897;43.570;27.832;2022-12-11T14:19:18;17.52;;;3.90;;
9716;SDS011;4897;43.570;27.832;2022-12-11T14:21:56;19.23;;;3.90;;
9716;SDS011;4897;43.570;27.832;2022-12-11T14:24:24;18.80;;;4.60;;
9716;SDS011;4897;43.570;27.832;2022-12-11T14:26:52;14.73;;;3.97;;
9716;SDS011;4897;43.570;27.832;2022-12-11T14:29:23;14.18;;;3.50;;
9716;SDS011;4897;43.570;27.832;2022-12-11T14:31:52;22.60;;;4.40;;
9716;SDS011;4897;43.570;27.832;2022-12-11T14:34:23;20.80;;;4.03;;
9716;SDS011;4897;43.570;27.832;2022-12-11T14:36:54;13.60;;;3.65;;
9716;SDS011;4897;43.570;27.832;2022-12-11T14:39:25;13.15;;;3.60;;
9716;SDS011;4897;43.570;27.832;2022-12-11T14:42:02;26.35;;;4.97;;
9716;SDS011;4897;43.570;27.832;2022-12-11T14:44:44;19.45;;;4.95;;
9716;SDS011;4897;43.570;27.832;2022-12-11T14:47:15;14.88;;;4.25;;
9716;SDS011;4897;43.570;27.832;2022-12-11T14:49:47;24.80;;;4.43;;
9716;SDS011;4897;43.570;27.832;2022-12-11T14:52:20;19.95;;;4.65;;
9716;SDS011;4897;43.570;27.832;2022-12-11T14:54:52;18.65;;;4.43;;
9716;SDS011;4897;43.570;27.832;2022-12-11T14:57:23;25.90;;;4.80;;
9716;SDS011;4897;43.570;27.832;2022-12-11T14:59:54;16.63;;;3.72;;
9716;SDS011;4897;43.570;27.832;2022-12-11T15:02:27;21.75;;;4.93;;
9716;SDS011;4897;43.570;27.832;2022-12-11T15:05:01;26.17;;;4.40;;
9716;SDS011;4897;43.570;27.832;2022-12-11T15:07:37;19.05;;;4.20;;
9716;SDS011;4897;43.570;27.832;2022-12-11T15:10:05;21.27;;;4.55;;
9716;SDS011;4897;43.570;27.832;2022-12-11T15:12:32;19.08;;;4.85;;
9716;SDS011;4897;43.570;27.832;2022-12-11T15:15:00;24.20;;;5.13;;
9716;SDS011;4897;43.570;27.832;2022-12-11T15:17:31;22.83;;;4.65;;